createdAt,value
2023-09-08T00:01:35.963Z,7.00
2023-09-08T00:04:03.676Z,7.30
2023-09-08T00:06:31.863Z,7.95
2023-09-08T00:08:59.448Z,7.17
2023-09-08T00:11:27.022Z,7.10
2023-09-08T00:13:55.412Z,7.90
2023-09-08T00:16:23.862Z,7.17
2023-09-08T00:18:51.337Z,7.37
2023-09-08T00:21:19.679Z,7.13
2023-09-08T00:23:47.259Z,7.37
2023-09-08T00:26:14.896Z,8.20
2023-09-08T00:28:42.528Z,7.03
2023-09-08T00:31:10.833Z,6.73
2023-09-08T00:33:38.517Z,6.80
2023-09-08T00:36:06.031Z,8.13
2023-09-08T00:38:33.965Z,6.90
2023-09-08T00:41:01.212Z,6.60
2023-09-08T00:43:28.776Z,7.40
2023-09-08T00:45:57.234Z,8.45
2023-09-08T00:48:24.797Z,7.33
2023-09-08T00:50:52.370Z,6.87
2023-09-08T00:53:20.019Z,7.90
2023-09-08T00:55:47.609Z,6.97
2023-09-08T00:58:15.171Z,7.07
2023-09-08T01:00:42.766Z,7.27
2023-09-08T01:03:10.508Z,7.60
2023-09-08T01:05:38.074Z,6.33
2023-09-08T01:08:05.620Z,8.43
2023-09-08T01:10:33.185Z,8.48
2023-09-08T01:13:00.788Z,7.50
2023-09-08T01:15:28.381Z,7.63
2023-09-08T01:17:56.070Z,7.85
2023-09-08T01:20:29.369Z,7.83
2023-09-08T01:22:59.908Z,7.20
2023-09-08T01:25:27.579Z,7.47
2023-09-08T01:27:55.161Z,7.33
2023-09-08T01:30:22.731Z,7.53
2023-09-08T01:32:51.164Z,8.82
2023-09-08T01:35:18.714Z,8.10
2023-09-08T01:37:46.304Z,8.77
2023-09-08T01:40:13.892Z,8.30
2023-09-08T01:42:42.244Z,8.47
2023-09-08T01:45:09.895Z,8.17
2023-09-08T01:47:37.544Z,8.80
2023-09-08T01:50:05.079Z,8.07
2023-09-08T01:52:32.663Z,7.50
2023-09-08T01:55:00.340Z,8.00
2023-09-08T01:57:27.838Z,7.77
2023-09-08T01:59:56.179Z,9.50
2023-09-08T02:02:23.755Z,7.90
2023-09-08T02:04:51.429Z,8.03
2023-09-08T02:07:18.958Z,7.50
2023-09-08T02:09:46.534Z,7.67
2023-09-08T02:12:14.120Z,7.97
2023-09-08T02:14:42.562Z,8.07
2023-09-08T02:17:10.065Z,7.87
2023-09-08T02:19:38.443Z,9.50
2023-09-08T02:22:06.061Z,7.70
2023-09-08T02:24:33.708Z,9.65
2023-09-08T02:27:01.998Z,10.52
2023-09-08T02:29:29.603Z,8.40
2023-09-08T02:31:57.197Z,8.63
2023-09-08T02:34:24.846Z,8.43
2023-09-08T02:36:52.437Z,8.63
2023-09-08T02:39:20.056Z,7.60
2023-09-08T02:41:48.385Z,7.97
2023-09-08T02:44:15.950Z,8.57
2023-09-08T02:46:44.388Z,7.53
2023-09-08T02:49:12.007Z,8.20
2023-09-08T02:51:39.531Z,7.73
2023-09-08T02:54:07.250Z,7.47
2023-09-08T02:56:35.575Z,7.60
2023-09-08T02:59:03.159Z,7.73
2023-09-08T03:01:31.614Z,8.13
2023-09-08T03:03:59.170Z,8.40
2023-09-08T03:06:27.457Z,8.00
2023-09-08T03:08:55.040Z,6.93
2023-09-08T03:11:23.393Z,8.07
2023-09-08T03:13:50.982Z,7.63
2023-09-08T03:16:19.348Z,7.23
2023-09-08T03:18:46.890Z,7.00
2023-09-08T03:21:14.476Z,7.87
2023-09-08T03:23:42.960Z,7.47
2023-09-08T03:26:10.411Z,8.47
2023-09-08T03:28:38.749Z,7.30
2023-09-08T03:31:06.361Z,7.40
2023-09-08T03:33:34.132Z,8.07
2023-09-08T03:36:01.520Z,7.40
2023-09-08T03:38:29.092Z,7.70
2023-09-08T03:40:56.697Z,8.33
2023-09-08T03:43:25.102Z,9.13
2023-09-08T03:45:52.795Z,8.20
2023-09-08T03:48:20.222Z,7.83
2023-09-08T03:50:47.825Z,7.40
2023-09-08T03:53:15.429Z,7.60
2023-09-08T03:55:42.986Z,8.82
2023-09-08T03:58:10.569Z,8.20
2023-09-08T04:00:38.141Z,7.93
2023-09-08T04:03:05.916Z,8.00
2023-09-08T04:05:33.543Z,7.60
2023-09-08T04:08:01.165Z,7.23
2023-09-08T04:10:29.004Z,8.00
2023-09-08T04:12:56.804Z,8.03
2023-09-08T04:15:26.878Z,7.67
2023-09-08T04:17:54.568Z,6.70
2023-09-08T04:20:22.848Z,8.38
2023-09-08T04:22:50.401Z,7.50
2023-09-08T04:25:18.758Z,7.30
2023-09-08T04:27:46.422Z,7.03
2023-09-08T04:30:14.294Z,7.37
2023-09-08T04:32:41.853Z,6.87
2023-09-08T04:35:09.517Z,7.10
2023-09-08T04:37:37.082Z,7.57
2023-09-08T04:40:04.863Z,8.65
2023-09-08T04:42:33.258Z,7.60
2023-09-08T04:45:00.792Z,7.60
2023-09-08T04:47:29.204Z,7.13
2023-09-08T04:49:56.826Z,6.97
2023-09-08T04:52:24.358Z,7.70
2023-09-08T04:54:51.995Z,8.43
2023-09-08T04:57:23.210Z,7.67
2023-09-08T04:59:47.284Z,6.80
2023-09-08T05:02:14.786Z,7.93
2023-09-08T05:04:42.369Z,7.90
2023-09-08T05:07:09.953Z,7.50
2023-09-08T05:09:38.344Z,7.33
2023-09-08T05:12:07.169Z,7.20
2023-09-08T05:14:35.043Z,8.23
2023-09-08T05:17:06.132Z,8.50
2023-09-08T05:19:37.844Z,8.63
2023-09-08T05:22:07.960Z,8.00
2023-09-08T05:24:36.640Z,9.75
2023-09-08T05:27:06.873Z,9.27
2023-09-08T05:29:38.301Z,8.50
2023-09-08T05:32:12.360Z,8.20
2023-09-08T05:34:41.101Z,8.37
2023-09-08T05:37:10.998Z,8.07
2023-09-08T05:39:41.535Z,8.10
2023-09-08T05:42:11.267Z,8.90
2023-09-08T05:44:47.225Z,9.27
2023-09-08T05:47:19.646Z,8.40
2023-09-08T05:49:51.215Z,8.67
2023-09-08T05:52:19.129Z,8.97
2023-09-08T05:54:55.435Z,9.07
2023-09-08T05:57:25.191Z,9.73
2023-09-08T05:59:53.898Z,11.40
2023-09-08T06:02:23.215Z,9.57
2023-09-08T06:04:51.011Z,9.43
2023-09-08T06:07:19.017Z,9.53
2023-09-08T06:09:48.761Z,9.03
2023-09-08T06:12:17.433Z,8.60
2023-09-08T06:14:44.391Z,9.47
2023-09-08T06:17:12.429Z,9.67
2023-09-08T06:19:40.397Z,8.87
2023-09-08T06:22:12.369Z,8.83
2023-09-08T06:24:40.950Z,9.20
2023-09-08T06:27:10.098Z,8.83
2023-09-08T06:29:38.727Z,8.57
2023-09-08T06:32:07.006Z,10.17
2023-09-08T06:34:35.777Z,10.33
2023-09-08T06:37:03.870Z,10.87
2023-09-08T06:39:31.793Z,10.93
2023-09-08T06:41:59.840Z,10.47
2023-09-08T06:44:29.891Z,10.70
2023-09-08T06:46:56.781Z,10.57
2023-09-08T06:49:24.543Z,10.23
2023-09-08T06:51:54.745Z,10.93
2023-09-08T06:54:25.068Z,10.73
2023-09-08T06:56:57.020Z,10.37
2023-09-08T06:59:26.968Z,10.67
2023-09-08T07:01:55.147Z,9.53
2023-09-08T07:04:25.216Z,9.53
2023-09-08T07:06:54.281Z,9.60
2023-09-08T07:09:23.533Z,9.83
2023-09-08T07:11:54.394Z,9.07
2023-09-08T07:14:29.203Z,9.87
2023-09-08T07:17:00.139Z,9.03
2023-09-08T07:19:29.134Z,9.07
2023-09-08T07:21:57.610Z,10.37
2023-09-08T07:24:25.780Z,12.10
2023-09-08T07:26:53.591Z,9.27
2023-09-08T07:29:22.960Z,8.93
2023-09-08T07:31:50.872Z,8.60
2023-09-08T07:34:19.824Z,8.80
2023-09-08T07:36:52.629Z,8.87
2023-09-08T07:39:20.484Z,8.90
2023-09-08T07:41:49.170Z,8.80
2023-09-08T07:44:19.810Z,8.80
2023-09-08T07:46:47.748Z,8.87
2023-09-08T07:49:16.669Z,9.17
2023-09-08T07:51:49.620Z,7.90
2023-09-08T07:54:20.951Z,7.90
2023-09-08T07:56:53.638Z,8.03
2023-09-08T07:59:29.515Z,8.00
2023-09-08T08:02:05.336Z,7.40
2023-09-08T08:04:32.156Z,7.93
2023-09-08T08:07:01.892Z,8.47
2023-09-08T08:09:32.622Z,7.20
2023-09-08T08:12:04.332Z,7.70
2023-09-08T08:14:33.449Z,7.00
2023-09-08T08:17:01.336Z,7.37
2023-09-08T08:19:32.511Z,7.78
2023-09-08T08:21:58.157Z,6.87
2023-09-08T08:24:26.466Z,7.30
2023-09-08T08:27:09.367Z,7.33
2023-09-08T08:29:49.853Z,7.10
2023-09-08T08:32:22.919Z,7.30
2023-09-08T08:35:06.398Z,7.17
2023-09-08T08:37:46.641Z,6.60
2023-09-08T08:40:14.520Z,7.10
2023-09-08T08:42:43.392Z,7.07
2023-09-08T08:45:11.480Z,6.70
2023-09-08T08:47:43.893Z,7.17
2023-09-08T08:50:13.048Z,7.10
2023-09-08T08:52:41.636Z,7.10
2023-09-08T08:55:09.735Z,6.30
2023-09-08T08:57:40.536Z,6.33
2023-09-08T09:00:15.208Z,6.13
2023-09-08T09:02:47.640Z,5.87
2023-09-08T09:05:18.371Z,6.67
2023-09-08T09:07:46.152Z,5.97
2023-09-08T09:10:15.438Z,6.00
2023-09-08T09:12:45.358Z,6.60
2023-09-08T09:15:19.774Z,5.60
2023-09-08T09:17:52.447Z,5.77
2023-09-08T09:20:21.229Z,6.23
2023-09-08T09:22:48.879Z,6.17
2023-09-08T09:25:32.902Z,5.87
2023-09-08T09:27:59.667Z,6.00
2023-09-08T09:30:27.451Z,6.50
2023-09-08T09:33:06.330Z,6.60
2023-09-08T09:35:52.602Z,6.03
2023-09-08T09:38:28.496Z,6.13
2023-09-08T09:40:58.079Z,6.62
2023-09-08T09:43:25.975Z,6.00
2023-09-08T09:45:53.875Z,6.20
2023-09-08T09:48:21.677Z,6.30
2023-09-08T09:50:52.631Z,5.33
2023-09-08T09:53:25.778Z,5.40
2023-09-08T09:55:54.416Z,5.77
2023-09-08T09:58:23.100Z,5.77
2023-09-08T10:00:52.071Z,6.20
2023-09-08T10:03:21.337Z,6.35
2023-09-08T10:05:49.099Z,6.57
2023-09-08T10:08:16.944Z,5.97
2023-09-08T10:10:52.301Z,6.07
2023-09-08T10:13:32.015Z,5.60
2023-09-08T10:16:06.851Z,6.10
2023-09-08T10:18:35.402Z,6.03
2023-09-08T10:21:06.927Z,6.20
2023-09-08T10:23:43.687Z,6.60
2023-09-08T10:26:11.547Z,5.90
2023-09-08T10:28:42.693Z,6.50
2023-09-08T10:31:12.080Z,6.40
2023-09-08T10:33:38.442Z,6.60
2023-09-08T10:36:06.543Z,6.70
2023-09-08T10:38:34.469Z,6.70
2023-09-08T10:41:19.956Z,6.43
2023-09-08T10:43:59.814Z,6.00
2023-09-08T10:46:36.435Z,6.50
2023-09-08T10:49:08.193Z,6.30
2023-09-08T10:51:36.207Z,6.10
2023-09-08T10:54:08.500Z,6.03
2023-09-08T10:56:58.117Z,6.00
2023-09-08T10:59:43.525Z,6.37
2023-09-08T11:02:11.424Z,5.83
2023-09-08T11:04:44.595Z,5.90
2023-09-08T11:07:12.334Z,5.60
2023-09-08T11:09:42.459Z,6.17
2023-09-08T11:12:18.945Z,6.03
2023-09-08T11:14:43.948Z,5.80
2023-09-08T11:17:11.566Z,6.47
2023-09-08T11:19:44.874Z,5.83
2023-09-08T11:22:12.445Z,5.93
2023-09-08T11:24:40.094Z,6.18
2023-09-08T11:27:07.675Z,5.77
2023-09-08T11:29:35.250Z,5.57
2023-09-08T11:32:03.726Z,5.57
2023-09-08T11:34:31.977Z,5.60
2023-09-08T11:36:59.593Z,5.33
2023-09-08T11:39:27.966Z,5.13
2023-09-08T11:41:56.295Z,5.10
2023-09-08T11:44:23.965Z,5.13
2023-09-08T11:46:51.638Z,5.93
2023-09-08T11:49:21.044Z,5.37
2023-09-08T11:51:48.638Z,5.72
2023-09-08T11:54:16.197Z,4.97
2023-09-08T11:56:43.775Z,5.17
2023-09-08T11:59:11.436Z,4.70
2023-09-08T12:01:39.109Z,5.13
2023-09-08T12:04:06.651Z,5.03
2023-09-08T12:06:34.235Z,4.83
2023-09-08T12:09:04.784Z,4.97
2023-09-08T12:11:35.314Z,5.07
2023-09-08T12:14:02.891Z,5.20
2023-09-08T12:16:31.660Z,4.80
2023-09-08T12:18:59.976Z,4.70
2023-09-08T12:21:27.498Z,5.10
2023-09-08T12:23:55.875Z,4.83
2023-09-08T12:26:24.291Z,4.57
2023-09-08T12:28:54.869Z,4.60
2023-09-08T12:31:22.638Z,4.53
2023-09-08T12:33:50.841Z,4.70
2023-09-08T12:36:18.435Z,4.83
2023-09-08T12:38:48.758Z,4.37
2023-09-08T12:41:17.067Z,4.47
2023-09-08T12:43:44.665Z,4.50
2023-09-08T12:46:12.292Z,4.70
2023-09-08T12:48:39.888Z,4.43
2023-09-08T12:51:09.305Z,4.40
2023-09-08T12:53:35.857Z,3.90
2023-09-08T12:56:03.419Z,4.37
2023-09-08T12:58:30.995Z,4.63
2023-09-08T13:00:58.618Z,4.13
2023-09-08T13:03:26.201Z,4.33
2023-09-08T13:05:53.872Z,4.20
2023-09-08T13:08:21.418Z,4.47
2023-09-08T13:10:49.042Z,4.23
2023-09-08T13:13:16.608Z,4.37
2023-09-08T13:15:45.027Z,4.57
2023-09-08T13:18:12.593Z,4.30
2023-09-08T13:20:40.210Z,4.20
2023-09-08T13:23:07.732Z,3.50
2023-09-08T13:25:35.324Z,4.47
2023-09-08T13:28:03.706Z,4.20
2023-09-08T13:30:31.313Z,3.80
2023-09-08T13:32:58.905Z,4.30
2023-09-08T13:35:26.470Z,4.47
2023-09-08T13:37:54.048Z,4.40
2023-09-08T13:40:22.117Z,3.87
2023-09-08T13:42:49.329Z,4.13
2023-09-08T13:45:16.919Z,3.80
2023-09-08T13:47:45.983Z,4.03
2023-09-08T13:50:14.393Z,4.03
2023-09-08T13:52:43.546Z,4.13
2023-09-08T13:57:40.480Z,4.20
2023-09-08T14:00:04.976Z,4.00
2023-09-08T14:05:03.271Z,4.37
2023-09-08T14:07:35.252Z,4.30
2023-09-08T14:10:05.513Z,4.25
2023-09-08T14:14:51.396Z,4.40
2023-09-08T14:17:18.991Z,4.40
2023-09-08T14:19:47.365Z,3.90
2023-09-08T14:22:14.952Z,4.17
2023-09-08T14:24:42.532Z,4.33
2023-09-08T14:27:10.128Z,4.10
2023-09-08T14:29:38.464Z,4.50
2023-09-08T14:32:06.083Z,4.40
2023-09-08T14:34:33.651Z,4.60
2023-09-08T14:37:04.137Z,4.10
2023-09-08T14:39:29.383Z,4.40
2023-09-08T14:41:58.432Z,4.60
2023-09-08T14:44:26.141Z,4.77
2023-09-08T14:46:53.656Z,4.37
2023-09-08T14:49:22.000Z,4.30
2023-09-08T14:51:49.567Z,4.73
2023-09-08T14:54:17.162Z,4.93
2023-09-08T14:56:47.265Z,4.60
2023-09-08T14:59:17.300Z,4.67
2023-09-08T15:01:45.964Z,4.63
2023-09-08T15:04:13.495Z,4.83
2023-09-08T15:06:41.046Z,4.53
2023-09-08T15:09:08.646Z,4.50
2023-09-08T15:11:36.226Z,4.70
2023-09-08T15:14:04.644Z,4.57
2023-09-08T15:16:33.045Z,4.90
2023-09-08T15:19:00.598Z,4.53
2023-09-08T15:21:28.350Z,5.00
2023-09-08T15:23:55.930Z,4.43
2023-09-08T15:26:23.510Z,4.37
2023-09-08T15:28:51.111Z,4.93
2023-09-08T15:31:18.786Z,4.90
2023-09-08T15:33:46.374Z,4.70
2023-09-08T15:36:14.995Z,4.70
2023-09-08T15:38:42.497Z,5.10
2023-09-08T15:41:10.037Z,4.93
2023-09-08T15:43:38.028Z,4.53
2023-09-08T15:46:05.365Z,5.15
2023-09-08T15:48:32.897Z,4.47
2023-09-08T15:51:01.254Z,4.65
2023-09-08T15:53:28.861Z,3.90
2023-09-08T15:55:56.420Z,4.57
2023-09-08T15:58:24.007Z,4.47
2023-09-08T16:00:51.699Z,4.43
2023-09-08T16:03:19.745Z,4.37
2023-09-08T16:05:47.229Z,4.50
2023-09-08T16:08:15.593Z,4.85
2023-09-08T16:10:43.226Z,4.78
2023-09-08T16:13:10.866Z,4.57
2023-09-08T16:15:38.427Z,4.53
2023-09-08T16:18:06.121Z,4.27
2023-09-08T16:20:34.510Z,4.70
2023-09-08T16:23:02.044Z,4.77
2023-09-08T16:25:30.354Z,4.18
2023-09-08T16:27:58.004Z,4.78
2023-09-08T16:30:25.597Z,4.70
2023-09-08T16:32:53.980Z,5.00
2023-09-08T16:35:21.542Z,4.47
2023-09-08T16:37:49.883Z,4.70
2023-09-08T16:40:17.484Z,4.60
2023-09-08T16:42:45.132Z,4.70
2023-09-08T16:45:15.417Z,4.70
2023-09-08T16:47:40.281Z,4.30
2023-09-08T16:50:08.746Z,4.82
2023-09-08T16:52:36.454Z,5.00
2023-09-08T16:55:03.991Z,4.63
2023-09-08T16:57:31.570Z,4.60
2023-09-08T16:59:59.184Z,4.90
2023-09-08T17:02:26.817Z,4.67
2023-09-08T17:04:55.156Z,5.33
2023-09-08T17:07:22.711Z,4.63
2023-09-08T17:09:50.358Z,4.90
2023-09-08T17:12:17.938Z,5.33
2023-09-08T17:14:45.471Z,4.90
2023-09-08T17:17:13.106Z,5.30
2023-09-08T17:19:41.494Z,4.77
2023-09-08T17:22:09.054Z,5.23
2023-09-08T17:24:36.663Z,5.90
2023-09-08T17:27:05.017Z,5.97
2023-09-08T17:29:32.706Z,6.03
2023-09-08T17:32:00.244Z,5.23
2023-09-08T17:34:27.866Z,5.47
2023-09-08T17:36:55.439Z,5.60
2023-09-08T17:39:23.819Z,6.67
2023-09-08T17:41:52.206Z,6.70
2023-09-08T17:44:20.562Z,6.57
2023-09-08T17:46:49.133Z,5.83
2023-09-08T17:49:16.621Z,6.97
2023-09-08T17:51:44.239Z,6.82
2023-09-08T17:54:11.933Z,6.00
2023-09-08T17:56:39.456Z,6.75
2023-09-08T17:59:07.031Z,5.70
2023-09-08T18:01:35.456Z,6.12
2023-09-08T18:04:03.296Z,6.10
2023-09-08T18:06:30.601Z,5.93
2023-09-08T18:08:58.301Z,5.63
2023-09-08T18:11:25.819Z,5.67
2023-09-08T18:13:53.426Z,5.17
2023-09-08T18:16:21.862Z,5.70
2023-09-08T18:18:49.396Z,5.27
2023-09-08T18:21:17.031Z,6.32
2023-09-08T18:23:45.373Z,6.20
2023-09-08T18:26:13.011Z,5.37
2023-09-08T18:28:40.632Z,7.35
2023-09-08T18:31:08.308Z,6.07
2023-09-08T18:33:36.033Z,6.43
2023-09-08T18:36:03.405Z,6.07
2023-09-08T18:38:31.064Z,6.30
2023-09-08T18:40:58.617Z,5.50
2023-09-08T18:43:26.211Z,6.28
2023-09-08T18:45:53.810Z,6.83
2023-09-08T18:48:21.484Z,6.63
2023-09-08T18:50:49.828Z,7.18
2023-09-08T18:53:17.411Z,6.65
2023-09-08T18:55:45.009Z,7.07
2023-09-08T18:58:12.591Z,7.27
2023-09-08T19:00:40.203Z,6.73
2023-09-08T19:03:08.002Z,6.80
2023-09-08T19:05:36.138Z,5.90
2023-09-08T19:08:03.721Z,6.62
2023-09-08T19:10:32.076Z,5.67
2023-09-08T19:12:59.706Z,6.50
2023-09-08T19:15:27.307Z,5.80
2023-09-08T19:17:55.785Z,5.60
2023-09-08T19:20:23.291Z,5.10
2023-09-08T19:22:50.874Z,5.90
2023-09-08T19:25:18.478Z,5.90
2023-09-08T19:27:46.098Z,5.77
2023-09-08T19:30:13.713Z,5.50
2023-09-08T19:32:41.323Z,5.37
2023-09-08T19:35:09.149Z,5.27
2023-09-08T19:37:36.657Z,6.00
2023-09-08T19:40:04.226Z,5.40
2023-09-08T19:42:31.807Z,5.93
2023-09-08T19:45:00.187Z,5.60
2023-09-08T19:47:27.780Z,5.10
2023-09-08T19:49:55.354Z,5.90
2023-09-08T19:52:22.933Z,5.53
2023-09-08T19:54:50.507Z,5.93
2023-09-08T19:57:18.942Z,6.35
2023-09-08T19:59:46.521Z,6.33
2023-09-08T20:02:14.104Z,6.27
2023-09-08T20:04:42.477Z,6.53
2023-09-08T20:07:10.026Z,6.17
2023-09-08T20:09:37.651Z,6.10
2023-09-08T20:12:05.306Z,6.72
2023-09-08T20:14:32.858Z,6.03
2023-09-08T20:17:00.852Z,6.43
2023-09-08T20:19:28.433Z,6.37
2023-09-08T20:21:56.060Z,6.17
2023-09-08T20:24:23.639Z,6.10
2023-09-08T20:26:51.232Z,6.50
2023-09-08T20:29:18.821Z,6.90
2023-09-08T20:31:46.429Z,6.40
2023-09-08T20:34:14.024Z,6.63
2023-09-08T20:36:42.373Z,6.60
2023-09-08T20:39:10.163Z,6.57
2023-09-08T20:41:38.356Z,6.87
2023-09-08T20:44:05.894Z,6.73
2023-09-08T20:46:34.511Z,7.15
2023-09-08T20:49:01.924Z,7.30
2023-09-08T20:51:29.518Z,6.87
2023-09-08T20:53:57.110Z,6.80
2023-09-08T20:56:24.713Z,6.80
2023-09-08T20:58:53.093Z,6.70
2023-09-08T21:01:20.692Z,6.00
2023-09-08T21:03:49.045Z,6.27
2023-09-08T21:06:18.114Z,6.13
2023-09-08T21:08:44.639Z,5.93
2023-09-08T21:11:12.287Z,5.80
2023-09-08T21:13:39.877Z,7.03
2023-09-08T21:16:08.289Z,6.00
2023-09-08T21:18:35.870Z,6.40
2023-09-08T21:21:03.439Z,6.73
2023-09-08T21:23:31.099Z,6.50
2023-09-08T21:25:58.800Z,6.07
2023-09-08T21:28:26.268Z,6.97
2023-09-08T21:30:54.613Z,6.37
2023-09-08T21:33:22.290Z,6.50
2023-09-08T21:35:50.583Z,6.50
2023-09-08T21:38:18.954Z,6.60
2023-09-08T21:40:47.519Z,7.00
2023-09-08T21:43:15.094Z,6.20
2023-09-08T21:45:43.481Z,7.77
2023-09-08T21:48:11.094Z,7.80
2023-09-08T21:50:38.668Z,8.75
2023-09-08T21:53:06.266Z,7.10
2023-09-08T21:55:33.923Z,7.07
2023-09-08T21:58:01.479Z,7.40
2023-09-08T22:00:29.872Z,7.23
2023-09-08T22:02:57.644Z,8.50
2023-09-08T22:05:25.062Z,7.60
2023-09-08T22:07:52.689Z,8.20
2023-09-08T22:10:20.269Z,6.60
2023-09-08T22:12:47.864Z,7.03
2023-09-08T22:15:15.448Z,6.87
2023-09-08T22:17:43.815Z,6.90
2023-09-08T22:20:11.486Z,6.73
2023-09-08T22:22:39.851Z,7.47
2023-09-08T22:25:08.429Z,8.10
2023-09-08T22:27:36.320Z,6.63
2023-09-08T22:30:03.892Z,7.20
2023-09-08T22:32:31.608Z,7.80
2023-09-08T22:34:59.158Z,7.63
2023-09-08T22:37:26.722Z,7.55
2023-09-08T22:39:55.158Z,7.95
2023-09-08T22:42:23.575Z,8.10
2023-09-08T22:44:51.070Z,7.65
2023-09-08T22:47:18.657Z,7.40
2023-09-08T22:49:58.378Z,6.80
2023-09-08T22:52:25.991Z,7.53
2023-09-08T22:54:57.952Z,6.50
2023-09-08T22:57:21.936Z,7.13
2023-09-08T22:59:49.876Z,6.80
2023-09-08T23:02:17.560Z,7.20
2023-09-08T23:04:45.832Z,7.27
2023-09-08T23:07:13.403Z,6.83
2023-09-08T23:09:40.976Z,8.25
2023-09-08T23:12:09.324Z,7.50
2023-09-08T23:14:45.185Z,6.83
2023-09-08T23:17:04.647Z,7.57
2023-09-08T23:19:32.232Z,7.87
2023-09-08T23:21:59.847Z,7.90
2023-09-08T23:24:27.475Z,8.30
2023-09-08T23:26:55.070Z,7.07
2023-09-08T23:29:22.640Z,8.60
2023-09-08T23:31:50.264Z,7.70
2023-09-08T23:34:17.921Z,8.30
2023-09-08T23:36:45.456Z,8.37
2023-09-08T23:39:14.325Z,9.57
2023-09-08T23:41:41.922Z,8.53
2023-09-08T23:44:10.273Z,9.00
2023-09-08T23:46:38.007Z,7.67
2023-09-08T23:49:05.428Z,9.15
2023-09-08T23:51:33.025Z,9.07
2023-09-08T23:54:00.648Z,7.90
2023-09-08T23:56:28.231Z,8.95
2023-09-08T23:58:55.855Z,7.67
